Arctic - Eastern Arctic: Past 24 Hour Conditions

 

Kugaaruk Airport

10:00 PM MST 28 November 2014
This table is a summary of hourly weather conditions for the past 24 hours.
Date / Time
(MST)
Wind(knots) Conditions Visibility(km) Pressure(kPa) Air tempC) Relative humidity(%) Dew pointC) Wind Chill
28 November 2014
22:00 SW 7 N/A N/A 99.9 -26 73 -29 -35
21:00 SW 12 N/A N/A 100.0 -26 74 -29 -39
20:00 SW 14 N/A N/A 99.9 -26 74 -29 -40
19:00 SSW 13 N/A N/A 99.9 -26 74 -29 -39
18:00 SSW 14 Light Snow 6 100.0 -26 78 -28 -39
17:00 SW 14 Light Snow 6 100.0 -26 78 -29 -39
16:00 SSW 9 Light Snow 13 100.1 -26 69 -30 -37
15:00 SSW 11 Light Snow 8 100.1 -27 67 -31 -40
14:00 SW 11 Ice Crystals 19 100.1 -27 77 -30 -40
13:00 SW 14 Ice Crystals 13 100.1 -27 67 -32 -41
12:00 SW 16 Ice Crystals 13 100.1 -27 67 -32 -42
11:00 SSW 11 Ice Crystals 19 100.2 -28 76 -31 -41
10:00 SSW 16 Ice Crystals 10 100.2 -28 76 -31 -43
9:00 SSW 13 Ice Crystals 16 100.2 -29 75 -32 -43
8:00 SW 9 Ice Crystals 24 100.3 -30 75 -33 -42
7:00 SW 9 Ice Crystals 24 100.3 -31 74 -34 -43
6:00 SW 13 N/A N/A 100.3 -31 69 -35 -45
5:00 SSW 15 N/A N/A 100.4 -30 70 -34 -46
4:00 SW 16 N/A N/A 100.4 -31 70 -35 -47
3:00 SW 17 N/A N/A 100.4 -31 70 -35 -48
2:00 SW 12 N/A N/A 100.5 -31 70 -35 -45
1:00 SW 14 N/A N/A 100.5 -31 70 -35 -46
0:00 SW 14 N/A N/A 100.5 -31 69 -35 -46
27 November 2014
23:00 SW 9 N/A N/A 100.5 -31 70 -35 -44
22:00 SW 8 N/A N/A 100.6 -31 70 -35 -42
 
Map of Arctic - Eastern Arctic marine weather areas Baker Lake Airport Chesterfield Inlet Airport Coral Harbour Airport Gjoa Haven Airport Kugaaruk Airport Rankin Inlet Airport Shepherd Bay Airport Whale Cove Airport Arctic Bay Brevoort Island Qikiqtarjuaq Airport Cape Dorset Airport Cape Dyer Cape Hooper Clyde Airport Grise Fiord Airport Hall Beach Airport Igloolik Airport Iqaluit Airport Longstaff Bluff Pangnirtung Airport Pond Inlet Airport Repulse Bay Airport Resolute Airport Resolution Island Rowley Island Airport Taloyoak Airport Wager Bay Akulivik Airport Ivujivik Airport Puvirnituq Airport Kangiqsujuaq Airport Kangirsuk Airport Quaqtaq Airport Tasiujaq Airport Cape Kakkiviak Cape Kiglapait Nain Airport Saglek Cape Mercy Kimmirut Airport Aupaluk Airport Salluit Airport Kangiqsualujjuaq Airport Fort Ross
Legend: buoyBuoy land stationLand Station